Time;durP1;ratioP1;P1;durP2;ratioP2;P2;SDS_P1;SDS_P2;PMS_P1;PMS_P2;Temp;Humidity;BMP_temperature;BMP_pressure;BME280_temperature;BME280_humidity;BME280_pressure;Samples;Min_cycle;Max_cycle;Signal;HPM_P1;HPM_P2
2022/10/22 00:00:51;;;;;;;;;;;14.00;99.90;;;;;;5089154;28;20045;-78
2022/10/22 00:03:17;;;;;;;;;;;14.00;99.90;;;;;;5064605;28;19920;-77
2022/10/22 00:05:42;;;;;;;;;;;14.00;99.90;;;;;;5069326;28;19912;-79
2022/10/22 00:08:08;;;;;;;;;;;14.00;99.90;;;;;;5085150;28;19936;-78
2022/10/22 00:10:33;;;;;;;;;;;14.00;99.90;;;;;;5093703;28;19973;-79
2022/10/22 00:12:59;;;;;;;;;;;14.00;99.90;;;;;;5075283;28;20199;-77
2022/10/22 00:15:25;;;;;;;;;;;14.00;99.90;;;;;;5083345;28;20356;-77
2022/10/22 00:17:50;;;;;;;;;;;14.00;99.90;;;;;;5084609;28;19916;-78
2022/10/22 00:20:16;;;;;;;;;;;13.90;99.90;;;;;;5089049;28;20227;-77
2022/10/22 00:22:41;;;;;;;;;;;13.90;99.90;;;;;;5098563;28;19912;-76
2022/10/22 00:25:07;;;;;;;;;;;13.90;99.90;;;;;;5071626;28;19912;-76
2022/10/22 00:27:33;;;;;;;;;;;13.90;99.90;;;;;;5063521;28;20220;-78
2022/10/22 00:29:58;;;;;;;;;;;13.90;99.90;;;;;;5064984;28;19918;-77
2022/10/22 00:32:24;;;;;;;;;;;14.00;99.90;;;;;;5097260;28;19916;-77
2022/10/22 00:34:49;;;;;;;;;;;14.00;99.90;;;;;;5094626;28;19924;-77
2022/10/22 00:37:15;;;;;;;;;;;14.00;99.90;;;;;;5092693;28;19912;-80
2022/10/22 00:39:41;;;;;;;;;;;14.00;99.90;;;;;;5085543;28;19920;-77
2022/10/22 00:42:11;;;;;;;;;;;14.00;99.90;;;;;;5070212;28;20361;-76
2022/10/22 00:44:55;;;;;;;;;;;14.10;99.90;;;;;;5088888;28;19920;-79
2022/10/22 00:47:22;;;;;;;;;;;14.00;99.90;;;;;;5071673;28;19912;-76
2022/10/22 00:49:48;;;;;;;;;;;14.00;99.90;;;;;;5093153;28;19923;-78
2022/10/22 00:52:14;;;;;;;;;;;14.00;99.90;;;;;;5075430;28;19919;-77
2022/10/22 00:54:40;;;;;;;;;;;14.00;99.90;;;;;;5096740;28;19916;-78
2022/10/22 00:57:06;;;;;;;;;;;14.00;99.90;;;;;;5100728;28;20317;-77
2022/10/22 00:59:31;;;;;;;;;;;14.00;99.90;;;;;;5073977;28;19920;-77
2022/10/22 01:01:57;;;;;;;;;;;14.00;99.90;;;;;;5088858;28;19946;-78
2022/10/22 01:04:23;;;;;;;;;;;14.00;99.90;;;;;;5099827;28;19916;-76
2022/10/22 01:06:48;;;;;;;;;;;14.00;99.90;;;;;;5101954;28;19943;-76
2022/10/22 01:09:14;;;;;;;;;;;14.00;99.90;;;;;;5099635;28;19915;-78
2022/10/22 01:11:40;;;;;;;;;;;14.00;99.90;;;;;;5091382;28;19934;-75
2022/10/22 01:14:13;;;;;;;;;;;14.00;99.90;;;;;;5097231;28;19951;-76
2022/10/22 01:16:42;;;;;;;;;;;14.10;99.90;;;;;;5096639;28;19923;-76
2022/10/22 01:19:37;;;;;;;;;;;14.10;99.90;;;;;;5076103;28;19916;-77
2022/10/22 01:22:20;;;;;;;;;;;14.10;99.90;;;;;;5028640;28;20313;-78
2022/10/22 01:24:55;;;;;;;;;;;14.10;99.90;;;;;;5066935;28;19940;-77
2022/10/22 01:27:28;;;;;;;;;;;14.10;99.90;;;;;;5100752;28;19920;-78
2022/10/22 01:29:54;;;;;;;;;;;14.10;99.90;;;;;;5093429;28;19920;-76
2022/10/22 01:32:21;;;;;;;;;;;14.10;99.90;;;;;;5073505;28;19920;-79
2022/10/22 01:34:55;;;;;;;;;;;14.10;99.90;;;;;;5099361;28;19919;-77
2022/10/22 01:37:23;;;;;;;;;;;14.20;99.90;;;;;;5073727;28;19923;-76
2022/10/22 01:39:49;;;;;;;;;;;14.10;99.90;;;;;;5073391;28;20403;-77
2022/10/22 01:42:15;;;;;;;;;;;14.10;99.90;;;;;;5097178;28;19974;-79
2022/10/22 01:44:40;;;;;;;;;;;14.20;99.90;;;;;;5098873;28;19961;-78
2022/10/22 01:47:12;;;;;;;;;;;14.10;99.90;;;;;;5069356;28;20011;-78
2022/10/22 01:49:55;;;;;;;;;;;14.20;99.90;;;;;;5098641;28;19977;-76
2022/10/22 01:52:35;;;;;;;;;;;14.10;99.90;;;;;;5090060;28;19912;-75
2022/10/22 01:55:21;;;;;;;;;;;14.10;99.90;;;;;;5106133;28;19927;-76
2022/10/22 01:58:05;;;;;;;;;;;14.10;99.90;;;;;;5087354;28;19912;-78
2022/10/22 02:00:31;;;;;;;;;;;14.10;99.90;;;;;;5092425;28;19923;-76
2022/10/22 02:03:03;;;;;;;;;;;14.10;99.90;;;;;;5101055;28;19959;-77
2022/10/22 02:05:40;;;;;;;;;;;14.20;99.90;;;;;;5090685;28;19951;-78
2022/10/22 02:08:10;;;;;;;;;;;14.20;99.90;;;;;;5067185;28;19913;-75
2022/10/22 02:10:36;;;;;;;;;;;14.20;99.90;;;;;;5073494;28;19940;-77
2022/10/22 02:13:03;;;;;;;;;;;14.20;99.90;;;;;;5092959;28;19916;-77
2022/10/22 02:15:30;;;;;;;;;;;14.10;99.90;;;;;;5101796;28;20289;-77
2022/10/22 02:17:57;;;;;;;;;;;14.10;99.90;;;;;;5071678;28;19918;-76
2022/10/22 02:20:30;;;;;;;;;;;14.10;99.90;;;;;;5085397;28;19915;-78
2022/10/22 02:22:57;;;;;;;;;;;14.00;99.90;;;;;;5097223;28;20382;-79
2022/10/22 02:25:24;;;;;;;;;;;14.00;99.90;;;;;;5079327;28;19919;-80
2022/10/22 02:27:58;;;;;;;;;;;14.10;99.90;;;;;;5100627;28;19916;-76
2022/10/22 02:30:23;;;;;;;;;;;14.10;99.90;;;;;;5097716;28;19913;-75
2022/10/22 02:32:53;;;;;;;;;;;14.10;99.90;;;;;;5071840;28;20008;-74
2022/10/22 02:35:20;;;;;;;;;;;14.10;99.90;;;;;;5081408;28;19913;-76
2022/10/22 02:37:46;;;;;;;;;;;14.10;99.90;;;;;;5070582;28;19912;-76
2022/10/22 02:40:12;;;;;;;;;;;14.10;99.90;;;;;;5095960;28;19920;-76
2022/10/22 02:42:38;;;;;;;;;;;14.00;99.90;;;;;;5074150;28;19942;-75
2022/10/22 02:45:04;;;;;;;;;;;14.00;99.90;;;;;;5094641;28;19912;-78
2022/10/22 02:47:30;;;;;;;;;;;14.10;99.90;;;;;;5093255;28;19916;-76
2022/10/22 02:49:55;;;;;;;;;;;14.10;99.90;;;;;;5090536;28;19912;-78
2022/10/22 02:52:21;;;;;;;;;;;14.10;99.90;;;;;;5068527;28;20005;-76
2022/10/22 02:54:46;;;;;;;;;;;14.10;99.90;;;;;;5104736;28;20299;-77
2022/10/22 02:57:12;;;;;;;;;;;14.10;99.90;;;;;;5087505;28;19959;-75
2022/10/22 02:59:38;;;;;;;;;;;14.10;99.90;;;;;;5095156;28;20076;-78
2022/10/22 03:02:03;;;;;;;;;;;14.10;99.90;;;;;;5081839;28;19935;-77
2022/10/22 03:04:29;;;;;;;;;;;14.10;99.90;;;;;;5091647;28;20019;-76
2022/10/22 03:06:54;;;;;;;;;;;14.20;99.90;;;;;;5099306;28;19994;-78
2022/10/22 03:09:20;;;;;;;;;;;14.20;99.90;;;;;;5085848;28;19986;-77
2022/10/22 03:11:46;;;;;;;;;;;14.20;99.90;;;;;;5074846;28;19961;-79
2022/10/22 03:14:11;;;;;;;;;;;14.20;99.90;;;;;;5073822;28;19962;-80
2022/10/22 03:16:37;;;;;;;;;;;14.20;99.90;;;;;;5087996;28;19916;-76
2022/10/22 03:19:03;;;;;;;;;;;14.20;99.90;;;;;;5097297;28;19918;-74
2022/10/22 03:21:36;;;;;;;;;;;14.20;99.90;;;;;;5081117;28;19963;-76
2022/10/22 03:24:04;;;;;;;;;;;14.20;99.90;;;;;;5094864;28;20010;-76
2022/10/22 03:26:30;;;;;;;;;;;14.20;99.90;;;;;;5097366;28;19919;-76
2022/10/22 03:28:56;;;;;;;;;;;14.20;99.90;;;;;;5090050;28;19915;-76
2022/10/22 03:31:22;;;;;;;;;;;14.20;99.90;;;;;;5074765;28;19920;-76
2022/10/22 03:33:47;;;;;;;;;;;14.20;99.90;;;;;;5093802;28;19928;-76
2022/10/22 03:36:13;;;;;;;;;;;14.20;99.90;;;;;;5082314;28;20278;-75
2022/10/22 03:38:39;;;;;;;;;;;14.20;99.90;;;;;;5070152;28;19916;-78
2022/10/22 03:41:05;;;;;;;;;;;14.20;99.90;;;;;;5085500;28;20219;-82
2022/10/22 03:43:32;;;;;;;;;;;14.30;99.90;;;;;;5081541;28;19913;-76
2022/10/22 03:45:58;;;;;;;;;;;14.20;99.90;;;;;;5088053;28;20353;-76
2022/10/22 03:48:23;;;;;;;;;;;14.20;99.90;;;;;;5074130;28;19916;-81
2022/10/22 03:50:49;;;;;;;;;;;14.10;99.90;;;;;;5093040;28;20330;-76
2022/10/22 03:53:14;;;;;;;;;;;14.10;99.90;;;;;;5091524;28;19912;-82
2022/10/22 03:55:40;;;;;;;;;;;14.10;99.90;;;;;;5093032;28;19999;-77
2022/10/22 03:58:06;;;;;;;;;;;14.00;99.90;;;;;;5067211;28;19955;-77
2022/10/22 04:00:33;;;;;;;;;;;14.00;99.90;;;;;;5097113;28;20203;-77
2022/10/22 04:02:58;;;;;;;;;;;13.90;99.90;;;;;;5082185;28;19912;-76
2022/10/22 04:05:24;;;;;;;;;;;13.90;99.90;;;;;;5094047;28;19916;-80
2022/10/22 04:07:49;;;;;;;;;;;13.80;99.90;;;;;;5073498;28;19920;-77
2022/10/22 04:10:15;;;;;;;;;;;13.80;99.90;;;;;;5093235;28;19947;-76
2022/10/22 04:12:40;;;;;;;;;;;13.80;99.90;;;;;;5091632;28;19956;-76
2022/10/22 04:15:06;;;;;;;;;;;13.80;99.90;;;;;;5093251;28;20310;-80
2022/10/22 04:17:33;;;;;;;;;;;13.70;99.90;;;;;;5075201;28;20003;-76
2022/10/22 04:19:59;;;;;;;;;;;13.70;99.90;;;;;;5088216;28;19917;-76
2022/10/22 04:22:24;;;;;;;;;;;13.70;99.90;;;;;;5098292;28;19923;-82
2022/10/22 04:24:50;;;;;;;;;;;13.70;99.90;;;;;;5078748;28;19919;-77
2022/10/22 04:27:15;;;;;;;;;;;13.70;99.90;;;;;;5067796;28;19920;-80
2022/10/22 04:29:41;;;;;;;;;;;13.70;99.90;;;;;;5075126;28;19916;-80
2022/10/22 04:32:06;;;;;;;;;;;13.70;99.90;;;;;;5090052;28;20360;-79
2022/10/22 04:34:32;;;;;;;;;;;13.70;99.90;;;;;;5079446;28;19916;-80
2022/10/22 04:36:58;;;;;;;;;;;13.70;99.90;;;;;;5060532;28;19939;-78
2022/10/22 04:39:23;;;;;;;;;;;13.70;99.90;;;;;;5069829;28;20001;-76
2022/10/22 04:41:49;;;;;;;;;;;13.70;99.90;;;;;;5068279;28;19944;-77
2022/10/22 04:44:14;;;;;;;;;;;13.70;99.90;;;;;;5071817;28;19912;-77
2022/10/22 04:46:40;;;;;;;;;;;13.70;99.90;;;;;;5072509;28;20003;-76
2022/10/22 04:49:05;;;;;;;;;;;13.70;99.90;;;;;;5071339;28;20018;-76
2022/10/22 04:51:32;;;;;;;;;;;13.70;99.90;;;;;;5074893;28;19916;-81
2022/10/22 04:53:57;;;;;;;;;;;13.70;99.90;;;;;;5076040;28;19971;-80
2022/10/22 04:56:30;;;;;;;;;;;13.70;99.90;;;;;;5068910;28;20315;-80
2022/10/22 04:59:00;;;;;;;;;;;13.70;99.90;;;;;;5070776;28;20296;-76
2022/10/22 05:01:27;;;;;;;;;;;13.70;99.90;;;;;;5071906;28;19916;-81
2022/10/22 05:03:53;;;;;;;;;;;13.70;99.90;;;;;;5071220;28;19913;-80
2022/10/22 05:06:19;;;;;;;;;;;13.70;99.90;;;;;;5071100;28;19952;-77
2022/10/22 05:08:45;;;;;;;;;;;13.70;99.90;;;;;;5068961;28;19913;-76
2022/10/22 05:11:12;;;;;;;;;;;13.70;99.90;;;;;;5072497;28;19951;-75
2022/10/22 05:13:38;;;;;;;;;;;13.70;99.90;;;;;;5076009;28;19916;-77
2022/10/22 05:16:03;;;;;;;;;;;13.70;99.90;;;;;;5069710;28;19916;-79
2022/10/22 05:18:29;;;;;;;;;;;13.70;99.90;;;;;;5085538;28;19965;-76
2022/10/22 05:20:55;;;;;;;;;;;13.70;99.90;;;;;;5077002;28;19939;-78
2022/10/22 05:23:20;;;;;;;;;;;13.70;99.90;;;;;;5082751;28;20223;-80
2022/10/22 05:25:46;;;;;;;;;;;13.70;99.90;;;;;;5085193;28;19923;-78
2022/10/22 05:28:11;;;;;;;;;;;13.60;99.90;;;;;;5085172;28;19920;-77
2022/10/22 05:30:37;;;;;;;;;;;13.60;99.90;;;;;;5084729;28;19916;-81
2022/10/22 05:33:03;;;;;;;;;;;13.60;99.90;;;;;;5086917;28;20239;-76
2022/10/22 05:35:28;;;;;;;;;;;13.50;99.90;;;;;;5093288;28;21489;-78
2022/10/22 05:37:54;;;;;;;;;;;13.50;99.90;;;;;;5107992;28;20311;-81
2022/10/22 05:40:20;;;;;;;;;;;13.50;99.90;;;;;;5097235;28;20118;-77
2022/10/22 05:42:45;;;;;;;;;;;13.50;99.90;;;;;;5106335;28;19912;-76
2022/10/22 05:45:11;;;;;;;;;;;13.50;99.90;;;;;;5107466;28;19919;-76
2022/10/22 05:47:36;;;;;;;;;;;13.50;99.90;;;;;;5095811;28;19919;-82
2022/10/22 05:50:02;;;;;;;;;;;13.50;99.90;;;;;;5088179;28;19916;-77
2022/10/22 05:52:28;;;;;;;;;;;13.50;99.90;;;;;;5092226;28;20342;-76
2022/10/22 05:54:53;;;;;;;;;;;13.50;99.90;;;;;;5104392;28;20227;-80
2022/10/22 05:57:19;;;;;;;;;;;13.50;99.90;;;;;;5104661;28;20210;-78
2022/10/22 05:59:45;;;;;;;;;;;13.50;99.90;;;;;;5103671;28;19936;-81
2022/10/22 06:02:10;;;;;;;;;;;13.50;99.90;;;;;;5103099;28;19919;-76
2022/10/22 06:04:36;;;;;;;;;;;13.50;99.90;;;;;;5083681;28;20003;-77
2022/10/22 06:07:02;;;;;;;;;;;13.50;99.90;;;;;;5085603;28;19912;-75
2022/10/22 06:09:35;;;;;;;;;;;13.50;99.90;;;;;;5090424;28;20325;-79
2022/10/22 06:12:01;;;;;;;;;;;13.50;99.90;;;;;;5093646;28;19916;-77
2022/10/22 06:14:26;;;;;;;;;;;13.50;99.90;;;;;;5094077;28;19961;-80
2022/10/22 06:16:53;;;;;;;;;;;13.50;99.90;;;;;;5089066;28;19912;-76
2022/10/22 06:19:19;;;;;;;;;;;13.50;99.90;;;;;;5097193;28;19955;-77
2022/10/22 06:21:45;;;;;;;;;;;13.40;99.90;;;;;;5092840;28;20238;-77
2022/10/22 06:24:11;;;;;;;;;;;13.50;99.90;;;;;;5074155;28;19999;-83
2022/10/22 06:26:37;;;;;;;;;;;13.50;99.90;;;;;;5097261;28;20234;-80
2022/10/22 06:29:03;;;;;;;;;;;13.50;99.90;;;;;;5090736;28;19912;-80
2022/10/22 06:31:35;;;;;;;;;;;13.60;99.90;;;;;;5073415;28;19923;-77
2022/10/22 06:34:04;;;;;;;;;;;13.60;99.90;;;;;;5098975;28;19920;-77
2022/10/22 06:36:30;;;;;;;;;;;13.70;99.90;;;;;;5090569;28;19924;-82
2022/10/22 06:38:56;;;;;;;;;;;13.70;99.90;;;;;;5074211;28;19920;-81
2022/10/22 06:41:22;;;;;;;;;;;13.80;99.90;;;;;;5094942;28;20440;-77
2022/10/22 06:43:48;;;;;;;;;;;13.80;99.90;;;;;;5092184;28;19916;-76
2022/10/22 06:46:15;;;;;;;;;;;13.80;99.90;;;;;;5093988;28;20003;-80
2022/10/22 06:48:41;;;;;;;;;;;13.80;99.90;;;;;;5093801;28;20310;-78
2022/10/22 06:51:07;;;;;;;;;;;13.90;99.90;;;;;;5090370;28;19926;-79
2022/10/22 06:53:33;;;;;;;;;;;13.90;99.90;;;;;;5066656;28;20303;-76
2022/10/22 06:56:10;;;;;;;;;;;13.90;99.90;;;;;;5070003;28;20076;-77
2022/10/22 06:58:36;;;;;;;;;;;14.00;99.90;;;;;;5093370;28;19953;-76
2022/10/22 07:01:06;;;;;;;;;;;14.00;99.90;;;;;;5076536;28;20214;-78
2022/10/22 07:03:32;;;;;;;;;;;14.00;99.90;;;;;;5089759;28;19961;-78
2022/10/22 07:06:01;;;;;;;;;;;14.00;99.90;;;;;;5083009;28;20306;-77
2022/10/22 07:08:27;;;;;;;;;;;14.00;99.90;;;;;;5085440;28;19973;-79
2022/10/22 07:10:53;;;;;;;;;;;14.10;99.90;;;;;;5074819;28;20307;-77
2022/10/22 07:13:18;;;;;;;;;;;14.10;99.90;;;;;;5085144;28;19912;-77
2022/10/22 07:15:44;;;;;;;;;;;14.10;99.90;;;;;;5076242;28;19919;-78
2022/10/22 07:18:09;;;;;;;;;;;14.10;99.90;;;;;;5073009;28;19927;-77
2022/10/22 07:20:35;;;;;;;;;;;14.20;99.90;;;;;;5094653;28;19923;-78
2022/10/22 07:23:01;;;;;;;;;;;14.20;99.90;;;;;;5093610;28;19965;-76
2022/10/22 07:25:26;;;;;;;;;;;14.20;99.90;;;;;;5091591;28;20007;-77
2022/10/22 07:27:52;;;;;;;;;;;14.20;99.90;;;;;;5089130;28;19935;-77
2022/10/22 07:30:17;;;;;;;;;;;14.20;99.90;;;;;;5090488;28;19920;-76
2022/10/22 07:32:43;;;;;;;;;;;14.20;99.90;;;;;;5094293;28;19920;-77
2022/10/22 07:35:09;;;;;;;;;;;14.30;99.90;;;;;;5076168;28;19923;-76
2022/10/22 07:37:35;;;;;;;;;;;14.30;99.90;;;;;;5068519;28;19916;-76
2022/10/22 07:40:01;;;;;;;;;;;14.30;99.90;;;;;;5067344;28;20212;-76
2022/10/22 07:42:26;;;;;;;;;;;14.40;99.90;;;;;;5092127;28;19944;-76
2022/10/22 07:44:52;;;;;;;;;;;14.50;99.90;;;;;;5089554;28;19999;-79
2022/10/22 07:47:17;;;;;;;;;;;14.50;99.90;;;;;;5062575;28;19932;-78
2022/10/22 07:49:44;;;;;;;;;;;14.50;99.90;;;;;;5074446;28;20250;-76
2022/10/22 07:52:10;;;;;;;;;;;14.60;99.90;;;;;;5100568;28;20002;-77
2022/10/22 07:54:35;;;;;;;;;;;14.70;99.90;;;;;;5096638;28;20261;-78
2022/10/22 07:57:01;;;;;;;;;;;14.80;99.90;;;;;;5096010;28;19912;-77
2022/10/22 07:59:26;;;;;;;;;;;14.90;99.90;;;;;;5087664;28;19912;-77
2022/10/22 08:01:52;;;;;;;;;;;14.90;99.90;;;;;;5095056;28;20211;-78
2022/10/22 08:04:17;;;;;;;;;;;14.90;99.90;;;;;;5075075;28;19924;-76
2022/10/22 08:06:43;;;;;;;;;;;14.80;99.90;;;;;;5108357;28;19908;-79
2022/10/22 08:09:08;;;;;;;;;;;14.80;99.90;;;;;;5083607;28;20001;-77
2022/10/22 08:11:34;;;;;;;;;;;14.80;99.90;;;;;;5108835;28;19912;-78
2022/10/22 08:14:00;;;;;;;;;;;14.80;99.90;;;;;;5106232;28;19912;-77
2022/10/22 08:16:25;;;;;;;;;;;14.80;99.90;;;;;;5100238;28;19912;-77
2022/10/22 08:18:51;;;;;;;;;;;14.80;99.90;;;;;;5103213;28;19929;-77
2022/10/22 08:21:16;;;;;;;;;;;14.80;99.90;;;;;;5101543;28;19976;-77
2022/10/22 08:23:42;;;;;;;;;;;14.80;99.90;;;;;;5090138;28;19911;-76
2022/10/22 08:26:08;;;;;;;;;;;14.80;99.90;;;;;;5107396;28;19968;-75
2022/10/22 08:28:35;;;;;;;;;;;14.80;99.90;;;;;;5090393;28;19916;-76
2022/10/22 08:31:06;;;;;;;;;;;14.90;99.90;;;;;;5083351;28;19951;-77
2022/10/22 08:33:32;;;;;;;;;;;14.90;99.90;;;;;;5103760;28;19923;-77
2022/10/22 08:35:58;;;;;;;;;;;14.90;99.90;;;;;;5093852;28;19920;-77
2022/10/22 08:38:24;;;;;;;;;;;15.00;99.90;;;;;;5103297;28;20422;-77
2022/10/22 08:41:07;;;;;;;;;;;15.00;99.90;;;;;;5087089;28;19919;-77
2022/10/22 08:43:36;;;;;;;;;;;15.00;99.90;;;;;;5102713;28;19912;-78
2022/10/22 08:46:08;;;;;;;;;;;15.00;99.90;;;;;;5088400;28;19968;-78
2022/10/22 08:48:41;;;;;;;;;;;15.00;99.90;;;;;;5107644;28;19954;-77
2022/10/22 08:51:10;;;;;;;;;;;15.00;99.90;;;;;;5110815;28;20523;-76
2022/10/22 08:53:40;;;;;;;;;;;15.00;99.90;;;;;;5104272;28;19912;-78
2022/10/22 08:56:06;;;;;;;;;;;15.10;99.90;;;;;;5086631;28;19947;-77
2022/10/22 08:58:54;;;;;;;;;;;15.10;99.90;;;;;;5086525;28;19912;-76
2022/10/22 09:01:30;;;;;;;;;;;15.10;99.90;;;;;;5086461;28;19943;-76
2022/10/22 09:04:10;;;;;;;;;;;15.10;99.90;;;;;;5100705;28;19912;-77
2022/10/22 09:06:36;;;;;;;;;;;15.20;99.90;;;;;;5099418;28;19915;-76
2022/10/22 09:09:08;;;;;;;;;;;15.20;99.90;;;;;;5087574;28;19911;-77
2022/10/22 09:11:35;;;;;;;;;;;15.30;99.90;;;;;;5091182;28;19916;-77
2022/10/22 09:14:01;;;;;;;;;;;15.30;99.90;;;;;;5097988;28;19912;-76
2022/10/22 09:16:56;;;;;;;;;;;15.30;99.90;;;;;;5104766;28;19920;-75
2022/10/22 09:19:28;;;;;;;;;;;15.30;99.90;;;;;;5073343;28;19920;-75
2022/10/22 09:22:00;;;;;;;;;;;15.30;99.90;;;;;;5096028;28;19924;-79
2022/10/22 09:24:31;;;;;;;;;;;15.30;99.90;;;;;;5094793;28;19913;-76
2022/10/22 09:26:58;;;;;;;;;;;15.30;99.90;;;;;;5093036;28;20322;-76
2022/10/22 09:29:28;;;;;;;;;;;15.40;99.90;;;;;;5099506;28;21264;-75
2022/10/22 09:31:54;;;;;;;;;;;15.40;99.90;;;;;;5087894;28;20371;-77
2022/10/22 09:34:20;;;;;;;;;;;15.40;99.90;;;;;;5089779;28;20006;-76
2022/10/22 09:36:46;;;;;;;;;;;15.50;99.90;;;;;;5084646;28;19954;-75
2022/10/22 09:39:35;;;;;;;;;;;15.50;99.90;;;;;;5105359;28;19959;-77
2022/10/22 09:42:00;;;;;;;;;;;15.60;99.90;;;;;;5057401;28;19916;-76
2022/10/22 09:44:26;;;;;;;;;;;15.80;99.90;;;;;;5074128;28;19988;-75
2022/10/22 09:46:52;;;;;;;;;;;15.90;99.90;;;;;;5090175;28;19977;-76
2022/10/22 09:49:19;;;;;;;;;;;16.10;99.90;;;;;;5093586;28;19961;-76
2022/10/22 09:51:48;;;;;;;;;;;16.30;99.90;;;;;;5095614;28;19916;-77
2022/10/22 09:54:37;;;;;;;;;;;16.30;99.90;;;;;;5075152;28;20303;-77
2022/10/22 09:57:04;;;;;;;;;;;16.50;99.90;;;;;;5083801;28;19919;-76
2022/10/22 09:59:31;;;;;;;;;;;16.80;99.90;;;;;;5087029;28;20001;-75
2022/10/22 10:01:59;;;;;;;;;;;16.90;99.90;;;;;;5075303;28;19920;-75
2022/10/22 10:04:24;;;;;;;;;;;17.00;99.90;;;;;;5093104;28;19916;-75
2022/10/22 10:06:53;;;;;;;;;;;17.10;99.90;;;;;;5099236;28;19919;-75
2022/10/22 10:09:20;;;;;;;;;;;17.20;99.90;;;;;;5096740;28;20003;-76
2022/10/22 10:11:55;;;;;;;;;;;17.30;99.90;;;;;;5089717;28;19932;-77
2022/10/22 10:14:30;;;;;;;;;;;17.30;99.90;;;;;;5096354;28;20218;-75
2022/10/22 10:17:01;;;;;;;;;;;17.40;99.90;;;;;;5087284;28;19912;-78
2022/10/22 10:19:30;;;;;;;;;;;17.40;99.90;;;;;;5092450;28;19915;-76
2022/10/22 10:22:14;;;;;;;;;;;17.40;99.90;;;;;;5088970;28;19920;-77
2022/10/22 10:25:03;;;;;;;;;;;17.40;99.90;;;;;;5088795;28;20007;-76
2022/10/22 10:27:48;;;;;;;;;;;17.40;99.90;;;;;;5090388;28;19924;-76
2022/10/22 10:30:14;;;;;;;;;;;17.30;99.90;;;;;;5079841;28;19920;-76
2022/10/22 10:32:39;;;;;;;;;;;17.20;99.90;;;;;;5092049;28;19920;-76
2022/10/22 10:35:24;;;;;;;;;;;17.20;99.90;;;;;;5098152;28;20002;-75
2022/10/22 10:37:53;;;;;;;;;;;17.10;99.90;;;;;;5093742;28;19923;-79
2022/10/22 10:40:24;;;;;;;;;;;17.10;99.90;;;;;;5088086;28;19920;-77
2022/10/22 10:43:05;;;;;;;;;;;17.10;99.90;;;;;;5086567;28;19931;-76
2022/10/22 10:45:36;;;;;;;;;;;17.10;99.90;;;;;;5083712;28;19912;-76
2022/10/22 10:48:05;;;;;;;;;;;17.20;99.90;;;;;;5092874;28;19918;-76
2022/10/22 10:50:34;;;;;;;;;;;17.20;99.90;;;;;;5088771;28;19944;-77
2022/10/22 10:52:59;;;;;;;;;;;17.30;99.90;;;;;;5088689;28;19916;-76
2022/10/22 10:55:25;;;;;;;;;;;17.40;99.90;;;;;;5089074;28;19913;-81
2022/10/22 10:58:09;;;;;;;;;;;17.30;99.90;;;;;;5088568;28;19920;-76
2022/10/22 11:00:40;;;;;;;;;;;17.40;99.90;;;;;;5082352;28;20036;-76
2022/10/22 11:03:21;;;;;;;;;;;17.40;99.90;;;;;;5068270;28;19912;-76
2022/10/22 11:05:54;;;;;;;;;;;17.40;99.90;;;;;;5097934;28;19941;-75
2022/10/22 11:08:37;;;;;;;;;;;17.40;99.90;;;;;;5103281;28;19923;-75
2022/10/22 11:11:06;;;;;;;;;;;17.50;99.90;;;;;;5102574;28;19919;-74
2022/10/22 11:13:37;;;;;;;;;;;17.50;99.90;;;;;;5084412;28;19923;-76
2022/10/22 11:16:18;;;;;;;;;;;17.70;99.90;;;;;;5085349;28;19920;-81
2022/10/22 11:18:46;;;;;;;;;;;18.00;99.90;;;;;;5097401;28;19916;-77
2022/10/22 11:21:17;;;;;;;;;;;18.10;99.90;;;;;;5097100;28;19920;-76
2022/10/22 11:23:45;;;;;;;;;;;18.10;99.90;;;;;;5083199;28;20330;-75
2022/10/22 11:26:16;;;;;;;;;;;18.30;99.90;;;;;;5082028;28;19919;-76
2022/10/22 11:28:47;;;;;;;;;;;18.50;99.90;;;;;;5069752;28;20270;-75
2022/10/22 11:31:14;;;;;;;;;;;18.60;99.90;;;;;;5093124;28;20222;-75
2022/10/22 11:33:59;;;;;;;;;;;18.70;99.90;;;;;;5099630;28;19935;-75
2022/10/22 11:36:26;;;;;;;;;;;18.80;99.90;;;;;;5072997;28;19969;-74
2022/10/22 11:38:51;;;;;;;;;;;18.70;99.90;;;;;;5080716;28;19982;-75
2022/10/22 11:41:21;;;;;;;;;;;18.70;99.90;;;;;;5088448;28;20303;-75
2022/10/22 11:43:56;;;;;;;;;;;18.70;99.90;;;;;;5096000;28;19912;-78
2022/10/22 11:46:22;;;;;;;;;;;18.90;99.90;;;;;;5089647;28;20291;-75
2022/10/22 11:49:06;;;;;;;;;;;18.90;99.90;;;;;;5090973;28;19920;-75
2022/10/22 11:51:32;;;;;;;;;;;19.00;99.90;;;;;;5071093;28;19912;-78
2022/10/22 11:54:00;;;;;;;;;;;19.00;99.90;;;;;;5072441;28;19957;-77
2022/10/22 11:56:26;;;;;;;;;;;19.20;99.90;;;;;;5085465;28;20237;-76
2022/10/22 11:58:53;;;;;;;;;;;19.30;99.90;;;;;;5074427;28;19994;-78
2022/10/22 12:01:23;;;;;;;;;;;19.30;99.90;;;;;;5091689;28;20413;-75
2022/10/22 12:04:12;;;;;;;;;;;19.20;99.90;;;;;;5094971;28;19923;-76
2022/10/22 12:06:53;;;;;;;;;;;18.90;99.90;;;;;;5070373;28;20307;-75
2022/10/22 12:09:19;;;;;;;;;;;18.50;99.90;;;;;;5085135;28;19920;-74
2022/10/22 12:11:48;;;;;;;;;;;18.20;99.90;;;;;;5071100;28;20010;-73
2022/10/22 12:14:18;;;;;;;;;;;18.10;99.90;;;;;;5086199;28;20045;-75
2022/10/22 12:16:45;;;;;;;;;;;18.10;99.90;;;;;;5078790;28;19916;-75
2022/10/22 12:19:14;;;;;;;;;;;18.10;99.90;;;;;;5098666;28;19998;-75
2022/10/22 12:21:40;;;;;;;;;;;18.10;99.90;;;;;;5093747;28;19989;-74
2022/10/22 12:24:06;;;;;;;;;;;18.20;99.90;;;;;;5097552;28;19916;-78
2022/10/22 12:26:35;;;;;;;;;;;18.30;99.90;;;;;;5097940;28;19965;-74
2022/10/22 12:29:02;;;;;;;;;;;18.40;99.90;;;;;;5095038;28;19964;-77
2022/10/22 12:31:33;;;;;;;;;;;18.40;99.90;;;;;;5075750;28;20181;-76
2022/10/22 12:33:59;;;;;;;;;;;18.50;99.90;;;;;;5072303;28;19951;-75
2022/10/22 12:36:29;;;;;;;;;;;18.60;99.90;;;;;;5069783;28;19939;-78
2022/10/22 12:38:58;;;;;;;;;;;18.60;99.90;;;;;;5075975;28;20343;-75
2022/10/22 12:41:31;;;;;;;;;;;18.70;99.90;;;;;;5074394;28;19924;-78
2022/10/22 12:43:58;;;;;;;;;;;18.80;99.90;;;;;;5068275;28;19939;-76
2022/10/22 12:46:23;;;;;;;;;;;18.80;99.90;;;;;;5075528;28;19912;-76
2022/10/22 12:48:49;;;;;;;;;;;18.90;99.90;;;;;;5066891;28;20007;-74
2022/10/22 12:51:17;;;;;;;;;;;18.90;99.90;;;;;;5079813;28;20011;-75
2022/10/22 12:53:48;;;;;;;;;;;18.80;99.90;;;;;;5079504;28;19916;-74
2022/10/22 12:56:21;;;;;;;;;;;18.70;99.90;;;;;;5067797;28;19920;-76
2022/10/22 12:58:52;;;;;;;;;;;18.70;99.90;;;;;;5080162;28;19920;-76
2022/10/22 13:01:18;;;;;;;;;;;18.60;99.90;;;;;;5063606;28;20215;-74
2022/10/22 13:04:04;;;;;;;;;;;18.70;99.90;;;;;;5077482;28;19912;-74
2022/10/22 13:06:32;;;;;;;;;;;18.80;99.90;;;;;;5067155;28;19917;-75
2022/10/22 13:08:58;;;;;;;;;;;18.80;99.90;;;;;;5077268;28;19915;-75
2022/10/22 13:11:29;;;;;;;;;;;18.90;99.90;;;;;;5069785;28;20328;-77
2022/10/22 13:14:13;;;;;;;;;;;18.80;99.90;;;;;;5071985;28;19954;-78
2022/10/22 13:16:39;;;;;;;;;;;18.90;99.90;;;;;;5071509;28;20251;-75
2022/10/22 13:19:04;;;;;;;;;;;18.90;99.90;;;;;;5075080;28;19912;-75
2022/10/22 13:21:36;;;;;;;;;;;18.90;99.90;;;;;;5071300;28;19924;-75
2022/10/22 13:24:17;;;;;;;;;;;18.90;99.90;;;;;;5070572;28;19912;-75
2022/10/22 13:26:48;;;;;;;;;;;18.90;99.90;;;;;;5076235;28;20013;-77
2022/10/22 13:29:16;;;;;;;;;;;18.80;99.90;;;;;;5074443;28;20286;-76
2022/10/22 13:31:45;;;;;;;;;;;18.80;99.90;;;;;;5066780;28;19927;-74
2022/10/22 13:34:14;;;;;;;;;;;18.50;99.90;;;;;;5088083;28;19931;-75
2022/10/22 13:36:40;;;;;;;;;;;18.40;99.90;;;;;;5092262;28;19916;-76
2022/10/22 13:39:07;;;;;;;;;;;18.30;99.90;;;;;;5093545;28;20261;-77
2022/10/22 13:41:39;;;;;;;;;;;18.30;99.90;;;;;;5095707;28;19916;-74
2022/10/22 13:44:05;;;;;;;;;;;18.20;99.90;;;;;;5095063;28;19923;-75
2022/10/22 13:46:30;;;;;;;;;;;18.20;99.90;;;;;;5096178;28;20011;-76
2022/10/22 13:48:58;;;;;;;;;;;18.20;99.90;;;;;;5084989;28;20317;-75
2022/10/22 13:51:27;;;;;;;;;;;18.30;99.90;;;;;;5069360;28;19920;-78
2022/10/22 13:53:53;;;;;;;;;;;18.30;99.90;;;;;;5096069;28;19981;-77
2022/10/22 13:56:30;;;;;;;;;;;18.20;99.90;;;;;;4959076;28;20830;-77
2022/10/22 13:59:07;;;;;;;;;;;18.20;99.90;;;;;;4772753;28;19916;-76
2022/10/22 14:04:20;;;;;;;;;;;18.20;99.90;;;;;;5055409;28;19925;-75
2022/10/22 14:06:46;;;;;;;;;;;18.30;99.90;;;;;;5052065;28;19924;-75
2022/10/22 14:09:13;;;;;;;;;;;18.30;99.90;;;;;;5054049;28;19913;-74
2022/10/22 14:11:39;;;;;;;;;;;18.30;99.90;;;;;;5024275;28;19932;-76
2022/10/22 14:14:07;;;;;;;;;;;18.30;99.90;;;;;;5054848;28;19924;-76
2022/10/22 14:16:34;;;;;;;;;;;18.20;99.90;;;;;;5054708;28;19952;-75
2022/10/22 14:19:00;;;;;;;;;;;18.10;99.90;;;;;;5053911;28;19917;-74
2022/10/22 14:21:27;;;;;;;;;;;18.00;99.90;;;;;;5055441;28;19959;-75
2022/10/22 14:23:53;;;;;;;;;;;17.90;99.90;;;;;;5054615;28;19941;-75
2022/10/22 14:26:22;;;;;;;;;;;17.80;99.90;;;;;;5052423;28;20509;-75